Wrenshall, MN (55797)

6:47 PM CDT on July 25, 2016 (GMT -0500)
Esko | | Change Station

Elev 1145 ft 46.68 °N, 92.34 °W | Updated 4 seconds ago

Clear
Clear
81.5 °F
Feels Like 83 °F
N
0.0
Wind Variable Wind from SSW
Gusts 0.0 mph

Today
High -- | Low -- °F
--% Chance of Precip.
Yesterday
High -- | Low -- °F
Precip. -- in
Pressure 29.99 in
Visibility 10.0 miles
Clouds Clear
Heat Index 83 °F
Dew Point 65 °F
Humidity 58%
Rainfall 0.00 in
Snow Depth Not available.
5:42 AM 8:48 PM
Waning Gibbous, 61% visible
METAR KCOQ 252335Z AUTO 29005KT 10SM CLR 28/14 A2999 RMK AO2
Pressure 29.99 in
Visibility 10.0 miles
Clouds Clear
Heat Index 83 °F
Dew Point 65 °F
Humidity 58%
Rainfall 0.00 in
Snow Depth Not available.
5:42 AM 8:48 PM
Waning Gibbous, 61% visible
METAR KCOQ 252335Z AUTO 29005KT 10SM CLR 28/14 A2999 RMK AO2

10-Day Weather Forecast

Almanac

Astronomy

Jul. 25, 2016 Rise Set
Actual Time
Civil Twilight
Nautical Twilight
Astronomical Twilight
Moon
Length of Visible Light
Length of Day
Tomorrow will be .
, % of the Moon is Illuminated

Today's Extremes

State Highs State Lows

Community

WunderPhotos

Upload Photos

1,927,455 photos uploaded!

WunderBlog® & News

Nearby

Air Quality

  Air Quality AQ Index Pollutant
Not available.

Snow Depth

Station Depth Elevation

Earthquake Activity

City Distance Mag. Time & Date
Minimum magnitude displayed is 2.5.

Coastal Water Temperatures

Place Temperature

Stations

Nearby Weather Stations

Station Location Temp. Windchill Dew Point Humidity Wind Precip. Elev Updated Type
                   

Watches & Warnings

There are currently no watches in effect.